Time;durP1;ratioP1;P1;durP2;ratioP2;P2;SDS_P1;SDS_P2;PMS_P1;PMS_P2;Temp;Humidity;BMP_temperature;BMP_pressure;BME280_temperature;BME280_humidity;BME280_pressure;Samples;Min_cycle;Max_cycle;Signal;HPM_P1;HPM_P2
2023/03/09 00:02:23;;;;;;;21.13;17.10;;;6.90;1.00;;;;;;5045142;28;20268;-54
2023/03/09 00:04:49;;;;;;;22.17;16.60;;;6.90;1.00;;;;;;5051074;28;20195;-52
2023/03/09 00:07:14;;;;;;;20.50;16.70;;;6.80;1.00;;;;;;5049305;28;20287;-53
2023/03/09 00:09:40;;;;;;;20.70;15.60;;;6.90;1.00;;;;;;5049255;28;20193;-53
2023/03/09 00:12:06;;;;;;;18.30;14.27;;;7.00;1.00;;;;;;5044579;28;20203;-55
2023/03/09 00:14:32;;;;;;;21.10;15.60;;;7.00;1.00;;;;;;5047595;28;20613;-54
2023/03/09 00:16:57;;;;;;;22.17;15.83;;;7.00;1.00;;;;;;5046914;28;20478;-54
2023/03/09 00:19:30;;;;;;;22.07;15.90;;;7.10;1.00;;;;;;5048965;28;20197;-52
2023/03/09 00:21:56;;;;;;;20.70;14.97;;;7.10;1.00;;;;;;5045870;28;20188;-55
2023/03/09 00:24:26;;;;;;;18.80;14.67;;;7.20;1.00;;;;;;5045835;28;20458;-52
2023/03/09 00:26:55;;;;;;;18.33;14.93;;;7.10;1.00;;;;;;5045548;28;20813;-55
2023/03/09 00:29:21;;;;;;;17.50;15.10;;;7.00;1.00;;;;;;5045811;28;20442;-55
2023/03/09 00:31:47;;;;;;;18.90;14.33;;;7.00;1.00;;;;;;5050937;28;20442;-53
2023/03/09 00:34:14;;;;;;;20.63;15.63;;;7.10;1.00;;;;;;5050899;28;20774;-53
2023/03/09 00:36:40;;;;;;;21.83;15.70;;;7.10;1.00;;;;;;5047198;28;20177;-55
2023/03/09 00:39:05;;;;;;;19.87;15.63;;;7.10;1.00;;;;;;5046780;28;20443;-54
2023/03/09 00:41:31;;;;;;;18.50;15.00;;;7.10;1.00;;;;;;5047601;28;21301;-53
2023/03/09 00:43:58;;;;;;;20.60;14.90;;;7.10;1.00;;;;;;5041042;28;20654;-53
2023/03/09 00:46:24;;;;;;;19.60;14.63;;;7.20;1.00;;;;;;5044011;28;20500;-55
2023/03/09 00:48:50;;;;;;;20.23;14.70;;;7.00;1.00;;;;;;5041905;28;20471;-53
2023/03/09 00:51:16;;;;;;;20.07;14.20;;;7.00;1.00;;;;;;5049219;28;20225;-55
2023/03/09 00:53:42;;;;;;;22.97;15.00;;;7.00;1.00;;;;;;5045361;28;20362;-55
2023/03/09 00:56:12;;;;;;;19.90;15.37;;;7.00;1.00;;;;;;5046397;28;20451;-55
2023/03/09 00:58:38;;;;;;;17.27;15.00;;;7.10;1.00;;;;;;5047359;28;20843;-54
2023/03/09 01:01:08;;;;;;;20.40;15.20;;;7.00;1.00;;;;;;5048044;28;20435;-56
2023/03/09 01:03:35;;;;;;;16.47;13.63;;;7.10;1.00;;;;;;5050042;28;20219;-54
2023/03/09 01:06:00;;;;;;;16.50;13.67;;;7.10;1.00;;;;;;5047466;28;20474;-53
2023/03/09 01:08:26;;;;;;;20.87;15.53;;;7.10;1.00;;;;;;5047502;28;20506;-54
2023/03/09 01:10:52;;;;;;;19.10;15.07;;;7.20;1.00;;;;;;5049141;28;20738;-53
2023/03/09 01:13:17;;;;;;;18.47;14.30;;;7.20;1.00;;;;;;5045224;28;20653;-54
2023/03/09 01:15:43;;;;;;;17.40;13.63;;;7.20;1.00;;;;;;5050840;28;20229;-55
2023/03/09 01:18:09;;;;;;;16.27;13.03;;;7.00;1.00;;;;;;5048741;28;20261;-52
2023/03/09 01:20:35;;;;;;;20.50;14.60;;;6.90;1.00;;;;;;5048102;28;20193;-56
2023/03/09 01:23:01;;;;;;;16.90;13.90;;;6.90;1.00;;;;;;5048723;28;20638;-55
2023/03/09 01:25:27;;;;;;;18.10;13.20;;;6.90;1.00;;;;;;5044017;28;20454;-54
2023/03/09 01:27:53;;;;;;;19.43;13.77;;;7.00;1.00;;;;;;5047505;28;20215;-53
2023/03/09 01:30:19;;;;;;;17.43;13.67;;;7.00;1.00;;;;;;5045061;28;20458;-53
2023/03/09 01:32:44;;;;;;;17.17;12.57;;;7.10;1.00;;;;;;5044222;28;20838;-54
2023/03/09 01:35:10;;;;;;;17.43;14.17;;;7.10;1.00;;;;;;5046533;28;20455;-54
2023/03/09 01:37:36;;;;;;;20.70;12.77;;;7.10;1.00;;;;;;5044660;28;20177;-54
2023/03/09 01:40:05;;;;;;;17.20;13.40;;;7.10;1.00;;;;;;5044280;28;20196;-52
2023/03/09 01:42:32;;;;;;;17.83;14.80;;;7.10;1.00;;;;;;5047115;28;20609;-53
2023/03/09 01:45:19;;;;;;;16.63;13.37;;;7.10;1.00;;;;;;5047020;28;20511;-54
2023/03/09 01:47:46;;;;;;;20.10;15.13;;;7.20;1.00;;;;;;5049441;28;20474;-54
2023/03/09 01:50:17;;;;;;;17.43;13.60;;;7.20;1.00;;;;;;5042274;28;20455;-55
2023/03/09 01:52:46;;;;;;;18.87;14.53;;;7.00;1.00;;;;;;5043160;28;20951;-54
2023/03/09 01:55:15;;;;;;;16.40;12.73;;;7.00;1.00;;;;;;5043048;28;20455;-53
2023/03/09 01:57:41;;;;;;;19.90;14.60;;;7.10;1.00;;;;;;5045832;28;20457;-53
2023/03/09 02:00:11;;;;;;;16.00;13.60;;;7.00;1.00;;;;;;5050644;28;20451;-52
2023/03/09 02:02:40;;;;;;;18.60;13.70;;;7.10;1.00;;;;;;5044876;28;20203;-53
2023/03/09 02:05:13;;;;;;;18.50;13.60;;;7.10;1.00;;;;;;5046608;28;20990;-53
2023/03/09 02:07:42;;;;;;;15.20;11.77;;;7.00;1.00;;;;;;5050268;28;20477;-53
2023/03/09 02:10:26;;;;;;;16.20;12.43;;;7.00;1.00;;;;;;5047902;28;20428;-52
2023/03/09 02:12:57;;;;;;;15.67;11.60;;;7.00;1.00;;;;;;5050284;28;20474;-55
2023/03/09 02:15:24;;;;;;;15.57;11.67;;;6.90;1.00;;;;;;5048907;28;20443;-52
2023/03/09 02:17:51;;;;;;;16.23;12.17;;;6.90;1.00;;;;;;5047867;28;21011;-56
2023/03/09 02:20:33;;;;;;;15.47;12.60;;;6.80;1.00;;;;;;5050407;28;20462;-54
2023/03/09 02:23:01;;;;;;;15.77;12.27;;;6.80;1.00;;;;;;5049145;28;20589;-54
2023/03/09 02:25:39;;;;;;;18.10;12.37;;;6.90;1.00;;;;;;5047485;28;20465;-53
2023/03/09 02:28:06;;;;;;;13.60;11.03;;;7.00;1.00;;;;;;5057449;28;20474;-52
2023/03/09 02:30:36;;;;;;;16.97;11.83;;;7.00;1.00;;;;;;5051127;28;20525;-53
2023/03/09 02:33:11;;;;;;;16.00;11.93;;;7.00;1.00;;;;;;5053182;28;20496;-52
2023/03/09 02:35:37;;;;;;;15.47;12.00;;;7.00;1.00;;;;;;5045201;28;20444;-54
2023/03/09 02:38:03;;;;;;;16.10;11.00;;;7.10;1.00;;;;;;5043788;28;20999;-54
2023/03/09 02:40:34;;;;;;;16.00;11.50;;;7.00;1.00;;;;;;5051624;28;20446;-54
2023/03/09 02:43:04;;;;;;;15.00;11.13;;;7.00;1.00;;;;;;5044581;28;20461;-54
2023/03/09 02:45:31;;;;;;;18.70;12.53;;;7.10;1.00;;;;;;5050066;28;20446;-54
2023/03/09 02:47:58;;;;;;;16.47;11.70;;;7.10;1.00;;;;;;5045778;28;20459;-54
2023/03/09 02:50:24;;;;;;;17.37;12.40;;;7.10;1.00;;;;;;5050364;28;20435;-54
2023/03/09 02:52:50;;;;;;;15.90;12.40;;;7.10;1.00;;;;;;5049033;28;20442;-55
2023/03/09 02:55:16;;;;;;;17.07;12.40;;;7.10;1.00;;;;;;5049364;28;20458;-53
2023/03/09 02:57:42;;;;;;;16.30;12.07;;;7.10;1.00;;;;;;5050938;28;20451;-52
2023/03/09 03:00:11;;;;;;;18.20;13.40;;;7.20;1.00;;;;;;5051557;28;20417;-54
2023/03/09 03:02:38;;;;;;;15.90;12.47;;;7.20;1.00;;;;;;5051440;28;20477;-52
2023/03/09 03:05:05;;;;;;;17.20;12.17;;;7.20;1.00;;;;;;5050223;28;20495;-54
2023/03/09 03:07:30;;;;;;;15.90;12.83;;;7.30;1.00;;;;;;5049619;28;20840;-53
2023/03/09 03:09:56;;;;;;;19.40;13.83;;;7.40;1.00;;;;;;5048324;28;20447;-52
2023/03/09 03:12:22;;;;;;;16.00;12.40;;;7.30;1.00;;;;;;5050101;28;20287;-54
2023/03/09 03:14:47;;;;;;;17.80;13.30;;;7.20;1.00;;;;;;5051771;28;20189;-54
2023/03/09 03:17:13;;;;;;;20.10;14.20;;;7.20;1.00;;;;;;5046754;28;20189;-53
2023/03/09 03:19:39;;;;;;;18.17;13.60;;;7.30;1.00;;;;;;5050231;28;20185;-52
2023/03/09 03:22:04;;;;;;;16.80;13.27;;;7.30;1.00;;;;;;5051677;28;20187;-53
2023/03/09 03:24:30;;;;;;;18.70;13.80;;;7.30;1.00;;;;;;5049432;28;21024;-54
2023/03/09 03:26:56;;;;;;;18.10;13.70;;;7.40;1.00;;;;;;5048449;28;20279;-54
2023/03/09 03:29:22;;;;;;;16.10;12.30;;;7.30;1.00;;;;;;5051253;28;20423;-54
2023/03/09 03:31:47;;;;;;;16.87;12.77;;;7.20;1.00;;;;;;5047704;28;20299;-52
2023/03/09 03:34:13;;;;;;;15.43;11.70;;;7.00;1.00;;;;;;5045560;28;20228;-53
2023/03/09 03:36:38;;;;;;;17.13;12.13;;;6.80;1.00;;;;;;5047254;28;20189;-54
2023/03/09 03:39:05;;;;;;;17.70;12.80;;;6.70;1.00;;;;;;5044760;28;20555;-54
2023/03/09 03:41:31;;;;;;;18.40;12.83;;;6.60;1.00;;;;;;5048059;28;20192;-55
2023/03/09 03:43:57;;;;;;;18.80;13.53;;;6.60;1.00;;;;;;5049685;28;23003;-54
2023/03/09 03:46:23;;;;;;;18.63;12.70;;;6.60;1.00;;;;;;5046948;28;20534;-52
2023/03/09 03:48:48;;;;;;;17.30;11.83;;;6.60;1.00;;;;;;5045602;28;20219;-53
2023/03/09 03:51:14;;;;;;;18.00;13.67;;;6.70;1.00;;;;;;5048024;28;20238;-54
2023/03/09 03:53:40;;;;;;;18.60;12.57;;;6.70;1.00;;;;;;5046617;28;20759;-55
2023/03/09 03:56:06;;;;;;;17.70;12.60;;;6.70;1.00;;;;;;5047605;28;20250;-55
2023/03/09 03:58:32;;;;;;;17.90;13.10;;;6.70;1.00;;;;;;5046061;28;20418;-55
2023/03/09 04:00:57;;;;;;;19.47;13.50;;;6.70;1.00;;;;;;5045365;28;20199;-54
2023/03/09 04:03:23;;;;;;;20.10;12.90;;;6.70;1.00;;;;;;5046266;28;20583;-54
2023/03/09 04:05:49;;;;;;;18.17;13.47;;;6.70;1.00;;;;;;5049301;28;20185;-54
2023/03/09 04:08:14;;;;;;;23.03;14.97;;;6.70;1.00;;;;;;5048202;28;20212;-54
2023/03/09 04:10:40;;;;;;;20.50;14.90;;;6.70;1.00;;;;;;5047598;28;20188;-52
2023/03/09 04:13:06;;;;;;;22.63;15.57;;;6.60;1.00;;;;;;5047499;28;20188;-54
2023/03/09 04:15:33;;;;;;;20.40;14.83;;;6.60;1.00;;;;;;5044158;28;20443;-53
2023/03/09 04:17:58;;;;;;;20.90;14.70;;;6.40;1.00;;;;;;5046730;28;20680;-53
2023/03/09 04:20:24;;;;;;;20.83;14.27;;;6.30;1.00;;;;;;5049371;28;20446;-54
2023/03/09 04:22:50;;;;;;;18.20;13.57;;;6.20;1.00;;;;;;5046385;28;20184;-53
2023/03/09 04:25:15;;;;;;;16.43;12.23;;;6.10;1.00;;;;;;5044758;28;20184;-53
2023/03/09 04:27:42;;;;;;;18.00;12.50;;;6.00;1.00;;;;;;5047046;28;20287;-53
2023/03/09 04:30:09;;;;;;;18.63;12.73;;;5.90;1.00;;;;;;5045869;28;20218;-53
2023/03/09 04:32:34;;;;;;;17.03;11.90;;;5.90;1.00;;;;;;5047396;28;20439;-53
2023/03/09 04:35:00;;;;;;;16.67;11.40;;;6.00;1.00;;;;;;5046856;28;20795;-56
2023/03/09 04:37:26;;;;;;;15.57;11.90;;;5.90;1.00;;;;;;5044524;28;20271;-54
2023/03/09 04:39:51;;;;;;;17.10;12.60;;;5.90;1.00;;;;;;5048789;28;20655;-52
2023/03/09 04:42:17;;;;;;;18.27;12.20;;;6.00;1.00;;;;;;5046504;28;20290;-52
2023/03/09 04:44:43;;;;;;;16.57;11.37;;;6.10;1.00;;;;;;5046227;28;20198;-52
2023/03/09 04:47:12;;;;;;;14.87;11.00;;;6.10;1.00;;;;;;5045389;28;20744;-52
2023/03/09 04:49:39;;;;;;;15.10;10.60;;;6.20;1.00;;;;;;5045668;28;20185;-52
2023/03/09 04:52:04;;;;;;;21.30;14.00;;;6.10;1.00;;;;;;5047028;28;20471;-52
2023/03/09 04:54:30;;;;;;;17.73;11.53;;;6.10;1.00;;;;;;5047237;28;21847;-53
2023/03/09 04:56:55;;;;;;;14.53;11.30;;;6.00;1.00;;;;;;5044015;28;20651;-54
2023/03/09 04:59:21;;;;;;;18.73;12.53;;;6.10;1.00;;;;;;5047890;28;20512;-55
2023/03/09 05:01:47;;;;;;;15.53;11.27;;;6.20;1.00;;;;;;5047382;28;20188;-53
2023/03/09 05:04:12;;;;;;;18.20;12.27;;;6.10;1.00;;;;;;5037655;28;20800;-53
2023/03/09 05:06:38;;;;;;;14.80;11.23;;;6.20;1.00;;;;;;5045579;28;20184;-53
2023/03/09 05:09:05;;;;;;;15.90;11.17;;;6.30;1.00;;;;;;5046297;28;20674;-54
2023/03/09 05:11:31;;;;;;;20.80;12.37;;;6.30;1.00;;;;;;5048097;28;20192;-54
2023/03/09 05:13:57;;;;;;;16.47;11.40;;;6.40;1.00;;;;;;5046559;28;20830;-55
2023/03/09 05:16:23;;;;;;;15.70;12.10;;;6.50;1.00;;;;;;5046628;28;20470;-55
2023/03/09 05:18:49;;;;;;;16.37;11.10;;;6.50;1.00;;;;;;5048471;28;20199;-55
2023/03/09 05:21:15;;;;;;;15.37;10.50;;;6.50;1.00;;;;;;5048314;28;20192;-52
2023/03/09 05:23:40;;;;;;;15.43;11.20;;;6.60;1.00;;;;;;5045786;28;20508;-56
2023/03/09 05:26:07;;;;;;;16.53;11.20;;;6.50;1.00;;;;;;5045883;28;20555;-55
2023/03/09 05:28:38;;;;;;;17.50;11.30;;;6.40;1.00;;;;;;5049167;28;20738;-54
2023/03/09 05:31:11;;;;;;;19.17;12.17;;;6.50;1.00;;;;;;5045714;28;20442;-55
2023/03/09 05:33:37;;;;;;;17.23;11.50;;;6.50;1.00;;;;;;5045889;28;20537;-54
2023/03/09 05:36:03;;;;;;;14.23;10.60;;;6.50;1.00;;;;;;5048642;28;20474;-53
2023/03/09 05:38:29;;;;;;;14.60;10.63;;;6.60;1.00;;;;;;5047116;28;20423;-54
2023/03/09 05:40:54;;;;;;;13.67;11.20;;;6.60;1.00;;;;;;5044070;28;20447;-52
2023/03/09 05:43:20;;;;;;;16.60;12.60;;;6.70;1.00;;;;;;5043728;28;20584;-55
2023/03/09 05:45:54;;;;;;;20.13;12.40;;;6.70;1.00;;;;;;5046359;28;20187;-52
2023/03/09 05:48:20;;;;;;;14.90;10.57;;;6.70;1.00;;;;;;5042623;28;20290;-54
2023/03/09 05:50:46;;;;;;;15.73;11.37;;;6.80;1.00;;;;;;5044430;28;20600;-54
2023/03/09 05:53:12;;;;;;;15.53;12.30;;;6.90;1.00;;;;;;5042521;28;20220;-55
2023/03/09 05:55:37;;;;;;;17.77;12.17;;;6.80;1.00;;;;;;5043273;28;20185;-54
2023/03/09 05:58:03;;;;;;;17.27;11.83;;;6.80;1.00;;;;;;5042949;28;20489;-56
2023/03/09 06:00:28;;;;;;;18.87;12.50;;;6.80;1.00;;;;;;5047515;28;20188;-53
2023/03/09 06:02:54;;;;;;;14.13;10.80;;;6.90;1.00;;;;;;5043996;28;20238;-57
2023/03/09 06:05:20;;;;;;;15.63;11.80;;;6.90;1.00;;;;;;5046563;28;20189;-54
2023/03/09 06:07:45;;;;;;;15.30;10.97;;;7.00;1.00;;;;;;5046658;28;20214;-53
2023/03/09 06:10:12;;;;;;;13.60;10.20;;;7.00;1.00;;;;;;5047229;28;21256;-53
2023/03/09 06:12:38;;;;;;;14.60;10.43;;;7.10;1.00;;;;;;5046723;28;20664;-55
2023/03/09 06:15:04;;;;;;;14.83;11.23;;;7.00;1.00;;;;;;5033097;28;20455;-54
2023/03/09 06:17:30;;;;;;;13.90;10.60;;;7.00;1.00;;;;;;5047147;28;20482;-55
2023/03/09 06:19:55;;;;;;;16.23;12.17;;;7.00;1.00;;;;;;5046761;28;20510;-55
2023/03/09 06:22:21;;;;;;;16.57;11.80;;;7.00;1.00;;;;;;5046171;28;20524;-54
2023/03/09 06:24:47;;;;;;;16.07;12.57;;;7.10;1.00;;;;;;5042981;28;20195;-54
2023/03/09 06:27:12;;;;;;;13.87;10.23;;;7.10;1.00;;;;;;5044165;28;20562;-54
2023/03/09 06:29:38;;;;;;;30.03;20.83;;;7.10;1.00;;;;;;5043969;28;20637;-55
2023/03/09 06:32:04;;;;;;;19.57;14.10;;;7.20;1.00;;;;;;5040661;28;20268;-55
2023/03/09 06:34:30;;;;;;;15.70;11.70;;;7.20;1.00;;;;;;5044634;28;20193;-53
2023/03/09 06:36:56;;;;;;;16.67;12.77;;;7.20;1.00;;;;;;5045994;28;20969;-59
2023/03/09 06:39:21;;;;;;;17.47;12.87;;;7.30;1.00;;;;;;5046390;28;20500;-57
2023/03/09 06:41:47;;;;;;;17.73;12.60;;;7.20;1.00;;;;;;5043677;28;20215;-57
2023/03/09 06:44:13;;;;;;;17.67;12.80;;;7.20;1.00;;;;;;5047649;28;20191;-57
2023/03/09 06:46:39;;;;;;;15.17;11.60;;;7.20;1.00;;;;;;5047801;28;20502;-58
2023/03/09 06:49:04;;;;;;;18.53;12.70;;;7.10;1.00;;;;;;5045580;28;20606;-58
2023/03/09 06:51:30;;;;;;;17.00;12.23;;;7.00;1.00;;;;;;5047252;28;20246;-58
2023/03/09 06:53:57;;;;;;;18.00;12.73;;;6.80;1.00;;;;;;5046312;28;20248;-57
2023/03/09 06:56:22;;;;;;;17.37;12.93;;;6.80;1.00;;;;;;5045748;28;20240;-57
2023/03/09 06:58:52;;;;;;;18.50;12.03;;;6.60;1.00;;;;;;5051263;28;20463;-57
2023/03/09 07:01:18;;;;;;;18.77;12.90;;;6.60;1.00;;;;;;5052663;28;20465;-58
2023/03/09 07:03:44;;;;;;;16.00;11.43;;;6.40;1.00;;;;;;5049394;28;20455;-57
2023/03/09 07:06:09;;;;;;;21.00;13.33;;;6.60;1.00;;;;;;5063702;28;20211;-57
2023/03/09 07:08:35;;;;;;;16.10;12.50;;;6.50;1.00;;;;;;5057971;28;20456;-57
2023/03/09 07:11:01;;;;;;;16.07;12.70;;;6.50;1.00;;;;;;5048008;28;20212;-58
2023/03/09 07:13:26;;;;;;;18.63;12.77;;;6.40;1.00;;;;;;5050329;28;20177;-57
2023/03/09 07:15:52;;;;;;;20.17;12.63;;;6.30;1.00;;;;;;5049035;28;20530;-56
2023/03/09 07:18:17;;;;;;;17.50;11.97;;;6.20;1.00;;;;;;5048421;28;20198;-57
2023/03/09 07:20:43;;;;;;;17.73;11.07;;;6.10;1.00;;;;;;5050450;28;20181;-57
2023/03/09 07:23:10;;;;;;;12.73;10.40;;;6.00;1.00;;;;;;5041499;28;20200;-56
2023/03/09 07:25:37;;;;;;;12.37;9.27;;;6.00;1.00;;;;;;5042433;28;20243;-55
2023/03/09 07:28:04;;;;;;;13.83;9.43;;;5.90;1.00;;;;;;5047399;28;20475;-58
2023/03/09 07:30:31;;;;;;;13.37;9.87;;;5.90;1.00;;;;;;5048831;28;20454;-57
2023/03/09 07:32:57;;;;;;;10.63;9.43;;;5.90;1.00;;;;;;5043995;28;20529;-58
2023/03/09 07:35:23;;;;;;;11.80;9.07;;;5.90;1.00;;;;;;5043610;28;20438;-57
2023/03/09 07:37:49;;;;;;;10.80;9.73;;;5.80;1.00;;;;;;5046859;28;20460;-56
2023/03/09 07:40:15;;;;;;;8.80;7.30;;;5.70;1.00;;;;;;5038395;28;20493;-57
2023/03/09 07:42:42;;;;;;;9.23;7.67;;;5.60;1.00;;;;;;5041807;28;20459;-58
2023/03/09 07:45:08;;;;;;;6.87;5.53;;;5.40;1.00;;;;;;5046674;28;20964;-58
2023/03/09 07:47:35;;;;;;;7.63;6.50;;;5.40;1.00;;;;;;5047452;28;20521;-57
2023/03/09 07:50:01;;;;;;;6.87;5.93;;;5.40;1.00;;;;;;5042980;28;20803;-57
2023/03/09 07:52:30;;;;;;;8.43;6.70;;;5.40;1.00;;;;;;5044540;28;20486;-58
2023/03/09 07:54:59;;;;;;;9.10;7.20;;;5.40;1.00;;;;;;5047706;28;20477;-58
2023/03/09 07:57:29;;;;;;;7.33;6.03;;;5.30;1.00;;;;;;5046065;28;20451;-58
2023/03/09 07:59:55;;;;;;;8.17;6.80;;;5.10;1.00;;;;;;5042315;28;20485;-58
2023/03/09 08:02:21;;;;;;;8.63;6.63;;;5.00;1.00;;;;;;5049278;28;20879;-57
2023/03/09 08:04:47;;;;;;;15.60;6.10;;;4.90;1.00;;;;;;5036265;28;22376;-57
2023/03/09 08:07:13;;;;;;;10.67;6.43;;;4.80;1.00;;;;;;5045701;28;20670;-56
2023/03/09 08:09:38;;;;;;;8.20;6.70;;;4.90;1.00;;;;;;5040558;28;20184;-58
2023/03/09 08:12:04;;;;;;;8.33;6.33;;;4.70;1.00;;;;;;5045839;28;20441;-57
2023/03/09 08:14:30;;;;;;;8.53;5.60;;;4.70;1.00;;;;;;5042878;28;20366;-57
2023/03/09 08:16:56;;;;;;;8.03;6.87;;;4.70;1.00;;;;;;5045751;28;20956;-58
2023/03/09 08:19:21;;;;;;;6.87;5.53;;;4.80;1.00;;;;;;5042851;28;20675;-58
2023/03/09 08:21:48;;;;;;;6.70;6.00;;;4.80;1.00;;;;;;5045147;28;20200;-57
2023/03/09 08:24:14;;;;;;;9.00;5.33;;;5.10;1.00;;;;;;5047347;28;20182;-57
2023/03/09 08:26:40;;;;;;;6.33;5.73;;;5.10;1.00;;;;;;5046622;28;20446;-58
2023/03/09 08:29:06;;;;;;;7.20;6.10;;;5.20;1.00;;;;;;5045572;28;20471;-57
2023/03/09 08:31:34;;;;;;;7.10;5.40;;;5.20;1.00;;;;;;5046215;28;20494;-58
2023/03/09 08:34:00;;;;;;;6.53;5.87;;;5.20;1.00;;;;;;5045874;28;20189;-57
2023/03/09 08:36:25;;;;;;;8.37;7.20;;;5.00;1.00;;;;;;5041709;28;20500;-59
2023/03/09 08:38:51;;;;;;;8.83;7.20;;;5.00;1.00;;;;;;5042447;28;20817;-57
2023/03/09 08:41:18;;;;;;;8.87;6.87;;;4.80;1.00;;;;;;5044197;28;20185;-57
2023/03/09 08:43:44;;;;;;;7.30;6.27;;;4.90;1.00;;;;;;5047200;28;20238;-58
2023/03/09 08:46:10;;;;;;;8.23;5.43;;;4.90;1.00;;;;;;5042341;28;20456;-57
2023/03/09 08:48:36;;;;;;;9.03;6.10;;;4.90;1.00;;;;;;5040375;28;20533;-56
2023/03/09 08:51:08;;;;;;;7.83;6.57;;;4.90;1.00;;;;;;5044326;28;20445;-58
2023/03/09 08:53:34;;;;;;;7.90;6.43;;;4.90;1.00;;;;;;5041768;28;20610;-57
2023/03/09 08:56:06;;;;;;;9.67;7.10;;;5.00;1.00;;;;;;5039159;28;20429;-56
2023/03/09 08:58:32;;;;;;;8.93;6.37;;;5.30;1.00;;;;;;5041107;28;20451;-59
2023/03/09 09:01:00;;;;;;;9.10;6.53;;;5.00;1.00;;;;;;5038412;28;20446;-58
2023/03/09 09:03:26;;;;;;;7.73;6.17;;;5.00;1.00;;;;;;5043955;28;20492;-57
2023/03/09 09:05:52;;;;;;;8.50;6.43;;;5.00;1.00;;;;;;5052286;28;20449;-58
2023/03/09 09:08:18;;;;;;;9.27;5.87;;;5.00;1.00;;;;;;5045525;28;20536;-58
2023/03/09 09:10:45;;;;;;;8.30;6.07;;;4.90;1.00;;;;;;5044721;28;20180;-57
2023/03/09 09:13:11;;;;;;;8.37;6.23;;;4.90;1.00;;;;;;5042903;28;20196;-57
2023/03/09 09:15:39;;;;;;;8.57;6.97;;;5.00;1.00;;;;;;5042336;28;20454;-58
2023/03/09 09:18:05;;;;;;;8.20;6.40;;;5.10;1.00;;;;;;5041589;28;20786;-58
2023/03/09 09:20:31;;;;;;;11.70;7.30;;;5.10;1.00;;;;;;5052686;28;20460;-57
2023/03/09 09:22:57;;;;;;;9.27;7.10;;;5.20;1.00;;;;;;5050107;28;20447;-56
2023/03/09 09:25:22;;;;;;;9.90;7.27;;;5.20;1.00;;;;;;5051520;28;20706;-57
2023/03/09 09:27:51;;;;;;;10.80;6.70;;;5.30;1.00;;;;;;5043757;28;20219;-56
2023/03/09 09:30:18;;;;;;;11.70;7.43;;;5.30;1.00;;;;;;5055684;28;20588;-58
2023/03/09 09:32:44;;;;;;;10.33;7.10;;;5.50;1.00;;;;;;5044290;28;20500;-57
2023/03/09 09:35:11;;;;;;;8.50;6.67;;;5.50;1.00;;;;;;5044932;28;20541;-57
2023/03/09 09:37:41;;;;;;;9.13;6.23;;;5.70;1.00;;;;;;5044635;28;20982;-57
2023/03/09 09:40:11;;;;;;;9.97;7.50;;;5.70;1.00;;;;;;5045074;28;20947;-57
2023/03/09 09:42:39;;;;;;;9.73;7.07;;;5.90;1.00;;;;;;5047647;28;20443;-57
2023/03/09 09:45:21;;;;;;;9.43;6.40;;;6.10;1.00;;;;;;5042958;28;20942;-57
2023/03/09 09:47:47;;;;;;;9.40;7.13;;;6.10;1.00;;;;;;5040393;28;20549;-58
2023/03/09 09:50:14;;;;;;;11.87;7.70;;;6.00;1.00;;;;;;5043296;28;20446;-58
2023/03/09 09:52:59;;;;;;;10.33;7.03;;;6.10;1.00;;;;;;5040121;28;20526;-58
2023/03/09 09:55:32;;;;;;;7.97;6.30;;;6.00;1.00;;;;;;5041676;28;20477;-59
2023/03/09 09:58:27;;;;;;;9.07;6.50;;;6.10;1.00;;;;;;5029981;28;20512;-57
2023/03/09 10:00:55;;;;;;;9.17;6.33;;;6.00;1.00;;;;;;5033790;28;20951;-60
2023/03/09 10:03:40;;;;;;;10.77;7.20;;;6.10;1.00;;;;;;5037671;28;20449;-57
2023/03/09 10:06:12;;;;;;;8.20;5.97;;;6.30;1.00;;;;;;5042540;28;20812;-60
2023/03/09 10:08:49;;;;;;;7.17;6.03;;;6.30;1.00;;;;;;5040856;28;20466;-59
2023/03/09 10:11:18;;;;;;;11.23;7.13;;;6.50;1.00;;;;;;5030011;28;20461;-59
2023/03/09 10:13:47;;;;;;;9.03;6.63;;;6.70;1.00;;;;;;5026317;28;20455;-61
2023/03/09 10:16:22;;;;;;;8.13;5.70;;;7.10;1.00;;;;;;5048764;28;20473;-59
2023/03/09 10:18:54;;;;;;;9.70;6.80;;;7.30;1.00;;;;;;5051035;28;20499;-59
2023/03/09 10:21:36;;;;;;;8.77;6.47;;;7.50;1.00;;;;;;5057695;28;20569;-60
2023/03/09 10:24:27;;;;;;;8.40;6.23;;;7.60;1.00;;;;;;5049253;28;20481;-58
2023/03/09 10:27:28;;;;;;;9.00;6.73;;;8.00;1.00;;;;;;5037383;28;20437;-60
2023/03/09 10:30:09;;;;;;;8.70;7.57;;;8.30;1.00;;;;;;5014375;28;21066;-58
2023/03/09 10:33:00;;;;;;;7.87;6.30;;;8.30;1.00;;;;;;5072012;28;20432;-60
2023/03/09 10:35:37;;;;;;;7.93;6.53;;;8.30;1.00;;;;;;5054071;28;20441;-59
2023/03/09 10:38:02;;;;;;;9.00;7.27;;;8.50;1.00;;;;;;5050426;28;20845;-59
2023/03/09 10:40:35;;;;;;;7.80;7.00;;;8.60;1.00;;;;;;5049801;28;20485;-59
2023/03/09 10:43:01;;;;;;;7.70;6.90;;;8.60;1.00;;;;;;5054957;28;20187;-60
2023/03/09 10:45:31;;;;;;;6.87;5.83;;;8.70;1.00;;;;;;5042740;28;20461;-59
2023/03/09 10:48:06;;;;;;;8.70;6.67;;;8.50;1.00;;;;;;5048087;28;20475;-61
2023/03/09 10:50:54;;;;;;;9.87;6.93;;;8.40;1.00;;;;;;5046008;28;20496;-60
2023/03/09 10:53:27;;;;;;;9.90;7.13;;;8.40;1.00;;;;;;5045958;28;20479;-59
2023/03/09 10:55:58;;;;;;;7.27;6.57;;;8.50;1.00;;;;;;5042995;28;20421;-60
2023/03/09 10:58:23;;;;;;;13.00;9.23;;;8.50;1.00;;;;;;5047047;28;20452;-59
2023/03/09 11:00:55;;;;;;;9.57;6.90;;;8.60;1.00;;;;;;5049296;28;20451;-59
2023/03/09 11:03:31;;;;;;;9.97;7.23;;;8.70;1.00;;;;;;5048752;28;20250;-61
2023/03/09 11:06:15;;;;;;;8.90;7.07;;;8.60;1.00;;;;;;5048996;28;20446;-60
2023/03/09 11:08:42;;;;;;;8.57;6.70;;;8.60;1.00;;;;;;5051010;28;20503;-59
2023/03/09 11:11:19;;;;;;;8.60;6.83;;;8.40;1.00;;;;;;5055972;28;20466;-59
2023/03/09 11:13:45;;;;;;;7.97;6.57;;;8.20;1.00;;;;;;5040499;28;20557;-59
2023/03/09 11:16:20;;;;;;;8.17;7.10;;;8.30;1.00;;;;;;5051431;28;20446;-60
2023/03/09 11:18:48;;;;;;;9.13;7.47;;;8.50;1.00;;;;;;5046204;28;20457;-59
2023/03/09 11:21:23;;;;;;;8.27;7.23;;;8.60;1.00;;;;;;5043360;28;20451;-59
2023/03/09 11:23:53;;;;;;;10.27;7.93;;;8.40;1.00;;;;;;5040422;28;20440;-60
2023/03/09 11:27:15;;;;;;;11.87;8.30;;;8.00;1.00;;;;;;5042022;28;20542;-60
2023/03/09 11:29:41;;;;;;;9.67;7.80;;;8.00;1.00;;;;;;5003986;28;20585;-59
2023/03/09 11:32:11;;;;;;;9.20;7.37;;;7.90;1.00;;;;;;5041515;28;20470;-59
2023/03/09 11:34:40;;;;;;;8.87;7.40;;;8.00;1.00;;;;;;5039779;28;20215;-60
2023/03/09 11:37:16;;;;;;;9.10;7.30;;;8.10;1.00;;;;;;5041173;28;20447;-59
2023/03/09 11:39:49;;;;;;;11.73;9.00;;;8.10;1.00;;;;;;5049660;28;20454;-60
2023/03/09 11:42:23;;;;;;;12.90;7.70;;;8.10;1.00;;;;;;5036205;28;20792;-59
2023/03/09 11:44:50;;;;;;;6.97;5.90;;;8.00;1.00;;;;;;5040645;28;20450;-59
2023/03/09 11:47:36;;;;;;;9.33;7.70;;;8.00;1.00;;;;;;5044037;28;20872;-60
2023/03/09 11:50:20;;;;;;;9.67;7.63;;;8.00;1.00;;;;;;5039494;28;20445;-59
2023/03/09 11:53:00;;;;;;;9.33;7.43;;;8.10;1.00;;;;;;5038052;28;20509;-59
2023/03/09 11:55:41;;;;;;;7.97;7.17;;;8.10;1.00;;;;;;5037748;28;20534;-60
2023/03/09 11:58:16;;;;;;;12.47;7.73;;;8.00;1.00;;;;;;5041912;28;20497;-59
2023/03/09 12:00:47;;;;;;;10.80;8.10;;;8.10;1.00;;;;;;5044130;28;20449;-59
2023/03/09 12:03:16;;;;;;;9.80;8.00;;;8.40;1.00;;;;;;5047410;28;20458;-58
2023/03/09 12:05:47;;;;;;;8.00;6.87;;;8.50;1.00;;;;;;5047337;28;20447;-58
2023/03/09 12:08:29;;;;;;;10.37;7.57;;;8.50;1.00;;;;;;5044733;28;20459;-58
2023/03/09 12:11:00;;;;;;;8.77;7.63;;;8.60;1.00;;;;;;5042095;28;20453;-57
2023/03/09 12:13:35;;;;;;;10.70;7.83;;;8.60;1.00;;;;;;5043873;28;20536;-58
2023/03/09 12:16:10;;;;;;;9.70;7.50;;;8.50;1.00;;;;;;5049986;28;20928;-58
2023/03/09 12:18:39;;;;;;;7.00;6.30;;;8.40;1.00;;;;;;5050437;28;20528;-59
2023/03/09 12:21:08;;;;;;;8.57;6.50;;;8.20;1.00;;;;;;5049305;28;20451;-58
2023/03/09 12:23:36;;;;;;;7.47;6.57;;;8.10;1.00;;;;;;5047850;28;20434;-57
2023/03/09 12:26:20;;;;;;;10.13;7.77;;;8.00;1.00;;;;;;5048861;28;20746;-57
2023/03/09 12:29:15;;;;;;;9.50;8.53;;;8.00;1.00;;;;;;5049494;28;20555;-58
2023/03/09 12:31:41;;;;;;;11.90;8.50;;;8.10;1.00;;;;;;5048675;28;20531;-58
2023/03/09 12:34:09;;;;;;;13.70;7.80;;;8.20;1.00;;;;;;5050228;28;20522;-58
2023/03/09 12:36:38;;;;;;;8.20;7.00;;;8.30;1.00;;;;;;5048829;28;20700;-57
2023/03/09 12:39:22;;;;;;;9.80;8.07;;;8.30;1.00;;;;;;5049556;28;20496;-59
2023/03/09 12:41:56;;;;;;;10.40;7.50;;;8.40;1.00;;;;;;5049704;28;20438;-58
2023/03/09 12:44:44;;;;;;;7.70;6.90;;;8.50;1.00;;;;;;5056792;28;20460;-58
2023/03/09 12:47:37;;;;;;;7.93;6.33;;;8.70;1.00;;;;;;5052448;28;20453;-59
2023/03/09 12:50:24;;;;;;;8.30;6.60;;;8.70;1.00;;;;;;5049403;28;20948;-58
2023/03/09 12:53:08;;;;;;;8.60;7.43;;;8.80;1.00;;;;;;5049322;28;20413;-58
2023/03/09 12:55:37;;;;;;;8.10;6.60;;;8.70;1.00;;;;;;5045886;28;20438;-58
2023/03/09 12:58:21;;;;;;;9.20;7.30;;;8.90;1.00;;;;;;5047557;28;20446;-59
2023/03/09 13:01:03;;;;;;;8.60;7.63;;;9.00;1.00;;;;;;5048870;28;20813;-57
2023/03/09 13:03:52;;;;;;;8.50;7.07;;;9.00;1.00;;;;;;5047797;28;20485;-57
2023/03/09 13:06:54;;;;;;;9.20;6.83;;;8.80;1.00;;;;;;5048952;28;20869;-58